createdAt,value
2022-12-18T00:00:00.202Z,-8.90
2022-12-18T00:02:32.143Z,-9.00
2022-12-18T00:05:04.148Z,-9.00
2022-12-18T00:07:36.787Z,-8.90
2022-12-18T00:10:09.007Z,-8.90
2022-12-18T00:12:40.834Z,-8.80
2022-12-18T00:15:12.656Z,-8.70
2022-12-18T00:17:44.392Z,-8.70
2022-12-18T00:20:16.125Z,-8.60
2022-12-18T00:22:47.821Z,-8.70
2022-12-18T00:25:19.704Z,-8.70
2022-12-18T00:27:51.448Z,-8.80
2022-12-18T00:30:23.300Z,-8.90
2022-12-18T00:32:55.076Z,-8.90
2022-12-18T00:35:26.754Z,-8.90
2022-12-18T00:37:58.488Z,-8.80
2022-12-18T00:40:30.147Z,-8.70
2022-12-18T00:43:01.854Z,-8.60
2022-12-18T00:45:33.656Z,-8.50
2022-12-18T00:48:05.653Z,-8.40
2022-12-18T00:50:37.398Z,-8.40
2022-12-18T00:53:09.098Z,-8.40
2022-12-18T00:55:42.135Z,-8.40
2022-12-18T00:58:18.276Z,-8.50
2022-12-18T01:00:50.946Z,-8.70
2022-12-18T01:03:22.652Z,-8.80
2022-12-18T01:05:54.450Z,-8.80
2022-12-18T01:08:26.235Z,-8.90
2022-12-18T01:10:58.061Z,-9.00
2022-12-18T01:13:29.771Z,-9.00
2022-12-18T01:16:01.738Z,-9.00
2022-12-18T01:18:33.657Z,-9.00
2022-12-18T01:21:10.308Z,-9.10
2022-12-18T01:23:42.739Z,-9.00
2022-12-18T01:26:17.191Z,-8.90
2022-12-18T01:28:49.064Z,-8.80
2022-12-18T01:31:27.071Z,-8.60
2022-12-18T01:34:02.192Z,-8.70
2022-12-18T01:36:36.848Z,-8.80
2022-12-18T01:39:13.027Z,-8.90
2022-12-18T01:42:03.717Z,-9.00
2022-12-18T01:45:04.194Z,-9.00
2022-12-18T01:47:51.034Z,-9.00
2022-12-18T01:50:37.793Z,-9.00
2022-12-18T01:53:15.794Z,-9.00
2022-12-18T01:55:52.640Z,-9.00
2022-12-18T01:58:49.251Z,-9.00
2022-12-18T02:01:23.757Z,-8.90
2022-12-18T02:03:55.611Z,-8.80
2022-12-18T02:06:38.617Z,-8.70
2022-12-18T02:09:18.751Z,-8.70
2022-12-18T02:11:53.674Z,-8.60
2022-12-18T02:14:45.476Z,-8.60
2022-12-18T02:17:19.688Z,-8.60
2022-12-18T02:20:15.465Z,-8.60
2022-12-18T02:23:02.035Z,-8.60
2022-12-18T02:26:11.535Z,-8.60
2022-12-18T02:29:01.656Z,-8.60
2022-12-18T02:31:39.991Z,-8.60
2022-12-18T02:34:13.428Z,-8.60
2022-12-18T02:36:47.073Z,-8.60
2022-12-18T02:39:22.117Z,-8.60
2022-12-18T02:41:54.017Z,-8.60
2022-12-18T02:44:25.877Z,-8.60
2022-12-18T02:46:57.617Z,-8.60
2022-12-18T02:49:37.900Z,-8.50
2022-12-18T02:52:28.202Z,-8.50
2022-12-18T02:55:12.371Z,-8.50
2022-12-18T02:57:47.605Z,-8.50
2022-12-18T03:00:34.264Z,-8.50
2022-12-18T03:03:21.380Z,-8.50
2022-12-18T03:06:06.916Z,-8.30
2022-12-18T03:08:42.714Z,-8.20
2022-12-18T03:11:15.616Z,-8.20
2022-12-18T03:13:57.063Z,-8.10
2022-12-18T03:16:32.068Z,-8.00
2022-12-18T03:19:09.940Z,-8.00
2022-12-18T03:21:56.892Z,-8.10
2022-12-18T03:24:31.760Z,-8.10
2022-12-18T03:27:06.281Z,-8.10
2022-12-18T03:29:46.999Z,-8.20
2022-12-18T03:32:28.197Z,-8.30
2022-12-18T03:35:05.282Z,-8.40
2022-12-18T03:37:37.396Z,-8.40
2022-12-18T03:40:10.184Z,-8.50
2022-12-18T03:42:53.881Z,-8.60
2022-12-18T03:45:35.505Z,-8.60
2022-12-18T03:48:12.792Z,-8.50
2022-12-18T03:51:06.101Z,-8.40
2022-12-18T03:53:50.149Z,-8.30
2022-12-18T03:56:24.780Z,-8.10
2022-12-18T03:58:58.661Z,-8.00
2022-12-18T04:01:35.114Z,-8.00
2022-12-18T04:04:09.348Z,-8.10
2022-12-18T04:06:42.849Z,-8.30
2022-12-18T04:09:15.350Z,-8.50
2022-12-18T04:11:48.237Z,-8.70
2022-12-18T04:14:20.021Z,-8.70
2022-12-18T04:16:51.756Z,-8.70
2022-12-18T04:19:23.412Z,-8.70
2022-12-18T04:21:55.361Z,-8.80
2022-12-18T04:24:27.312Z,-8.80
2022-12-18T04:26:59.041Z,-8.90
2022-12-18T04:29:30.915Z,-8.90
2022-12-18T04:32:02.641Z,-8.90
2022-12-18T04:34:34.681Z,-8.90
2022-12-18T04:37:06.353Z,-8.90
2022-12-18T04:39:38.124Z,-8.80
2022-12-18T04:42:09.853Z,-8.80
2022-12-18T04:44:41.528Z,-8.80
2022-12-18T04:47:13.256Z,-8.80
2022-12-18T04:49:45.062Z,-8.90
2022-12-18T04:52:16.894Z,-9.00
2022-12-18T04:54:48.598Z,-9.00
2022-12-18T04:57:20.511Z,-9.00
2022-12-18T04:59:52.180Z,-9.00
2022-12-18T05:02:23.929Z,-9.10
2022-12-18T05:04:55.622Z,-9.10
2022-12-18T05:07:27.414Z,-9.10
2022-12-18T05:09:59.052Z,-9.10
2022-12-18T05:12:32.323Z,-9.20
2022-12-18T05:15:04.405Z,-9.20
2022-12-18T05:17:36.176Z,-9.10
2022-12-18T05:20:08.220Z,-9.10
2022-12-18T05:22:39.909Z,-9.10
2022-12-18T05:25:11.801Z,-9.20
2022-12-18T05:27:43.607Z,-9.20
2022-12-18T05:30:16.264Z,-9.20
2022-12-18T05:32:47.940Z,-9.20
2022-12-18T05:35:19.714Z,-9.10
2022-12-18T05:37:51.492Z,-9.10
2022-12-18T05:40:23.207Z,-9.20
2022-12-18T05:42:54.941Z,-9.30
2022-12-18T05:45:26.641Z,-9.40
2022-12-18T05:47:58.446Z,-9.50
2022-12-18T05:50:30.180Z,-9.50
2022-12-18T05:53:01.975Z,-9.50
2022-12-18T05:55:38.119Z,-9.40
2022-12-18T05:58:11.369Z,-9.50
2022-12-18T06:00:45.970Z,-9.50
2022-12-18T06:03:17.720Z,-9.50
2022-12-18T06:05:49.678Z,-9.50
2022-12-18T06:08:21.401Z,-9.40
2022-12-18T06:10:53.726Z,-9.50
2022-12-18T06:13:25.378Z,-9.50
2022-12-18T06:15:57.117Z,-9.60
2022-12-18T06:18:28.849Z,-9.60
2022-12-18T06:21:01.073Z,-9.60
2022-12-18T06:23:32.896Z,-9.60
2022-12-18T06:26:06.538Z,-9.60
2022-12-18T06:28:38.697Z,-9.60
2022-12-18T06:31:10.714Z,-9.60
2022-12-18T06:33:42.697Z,-9.60
2022-12-18T06:36:15.431Z,-9.60
2022-12-18T06:38:47.356Z,-9.60
2022-12-18T06:41:22.161Z,-9.50
2022-12-18T06:43:59.401Z,-9.60
2022-12-18T06:46:31.470Z,-9.50
2022-12-18T06:49:03.218Z,-9.50
2022-12-18T06:51:34.888Z,-9.50
2022-12-18T06:54:06.686Z,-9.50
2022-12-18T06:56:38.445Z,-9.50
2022-12-18T06:59:10.134Z,-9.40
2022-12-18T07:01:42.075Z,-9.50
2022-12-18T07:04:13.990Z,-9.50
2022-12-18T07:06:45.731Z,-9.50
2022-12-18T07:09:17.373Z,-9.50
2022-12-18T07:11:49.033Z,-9.60
2022-12-18T07:14:20.866Z,-9.50
2022-12-18T07:16:52.788Z,-9.50
2022-12-18T07:19:24.602Z,-9.40
2022-12-18T07:21:56.300Z,-9.40
2022-12-18T07:24:28.032Z,-9.40
2022-12-18T07:26:59.769Z,-9.30
2022-12-18T07:29:31.867Z,-9.30
2022-12-18T07:32:03.658Z,-9.30
2022-12-18T07:34:35.759Z,-9.20
2022-12-18T07:37:08.330Z,-9.30
2022-12-18T07:39:40.004Z,-9.20
2022-12-18T07:42:30.237Z,-9.30
2022-12-18T07:45:03.065Z,-9.30
2022-12-18T07:47:37.722Z,-9.20
2022-12-18T07:50:09.860Z,-9.20
2022-12-18T07:52:41.542Z,-9.20
2022-12-18T07:55:13.259Z,-9.20
2022-12-18T07:57:55.397Z,-9.20
2022-12-18T08:00:29.767Z,-9.20
2022-12-18T08:03:01.819Z,-9.10
2022-12-18T08:05:33.665Z,-9.20
2022-12-18T08:08:05.488Z,-9.10
2022-12-18T08:10:38.287Z,-9.00
2022-12-18T08:13:10.044Z,-9.00
2022-12-18T08:15:41.733Z,-9.00
2022-12-18T08:18:14.499Z,-9.00
2022-12-18T08:20:46.361Z,-8.90
2022-12-18T08:23:18.227Z,-8.80
2022-12-18T08:25:50.892Z,-8.70
2022-12-18T08:28:22.651Z,-8.60
2022-12-18T08:30:54.319Z,-8.50
2022-12-18T08:33:27.304Z,-8.40
2022-12-18T08:36:02.760Z,-8.30
2022-12-18T08:38:34.830Z,-8.20
2022-12-18T08:41:09.725Z,-8.10
2022-12-18T08:44:00.401Z,-8.10
2022-12-18T08:46:38.159Z,-7.90
2022-12-18T08:49:11.174Z,-7.60
2022-12-18T08:51:43.210Z,-7.50
2022-12-18T08:54:15.105Z,-7.30
2022-12-18T08:56:46.849Z,-7.10
2022-12-18T08:59:20.208Z,-7.10
2022-12-18T09:01:56.322Z,-7.00
2022-12-18T09:04:28.101Z,-6.90
2022-12-18T09:06:59.804Z,-6.80
2022-12-18T09:09:31.578Z,-6.60
2022-12-18T09:12:03.394Z,-6.30
2022-12-18T09:14:35.238Z,-5.80
2022-12-18T09:17:07.075Z,-4.60
2022-12-18T09:19:38.867Z,-3.00
2022-12-18T09:24:42.871Z,-0.70
2022-12-18T09:27:14.541Z,0.40
2022-12-18T09:29:46.210Z,1.10
2022-12-18T09:32:22.363Z,1.40
2022-12-18T09:34:54.387Z,1.80
2022-12-18T09:37:26.132Z,2.30
2022-12-18T09:39:57.895Z,2.60
2022-12-18T09:42:29.860Z,3.10
2022-12-18T09:45:02.129Z,3.40
2022-12-18T09:47:38.681Z,3.70
2022-12-18T09:50:30.556Z,3.30
2022-12-18T09:53:10.814Z,4.00
2022-12-18T09:55:47.510Z,3.90
2022-12-18T09:58:37.169Z,3.50
2022-12-18T10:01:15.453Z,2.30
2022-12-18T10:03:47.854Z,1.60
2022-12-18T10:06:22.369Z,0.70
2022-12-18T10:09:31.637Z,0.00
2022-12-18T10:12:13.843Z,-0.80
2022-12-18T10:15:23.655Z,-1.50
2022-12-18T10:18:34.520Z,-2.00
2022-12-18T10:21:14.362Z,-2.30
2022-12-18T10:24:36.953Z,-2.50
2022-12-18T10:27:26.843Z,-2.50
2022-12-18T10:30:00.011Z,-2.40
2022-12-18T10:32:32.106Z,-2.50
2022-12-18T10:35:03.933Z,-2.60
2022-12-18T10:37:36.009Z,-2.70
2022-12-18T10:40:21.501Z,-2.70
2022-12-18T10:43:11.585Z,-2.60
2022-12-18T10:45:58.272Z,-2.40
2022-12-18T10:48:31.596Z,-2.30
2022-12-18T10:51:12.135Z,-2.30
2022-12-18T10:53:54.659Z,-2.30
2022-12-18T10:56:29.718Z,-2.10
2022-12-18T10:59:07.593Z,-1.90
2022-12-18T11:01:53.278Z,-1.60
2022-12-18T11:04:28.037Z,-1.50
2022-12-18T11:07:09.064Z,-1.30
2022-12-18T11:09:41.419Z,-0.90
2022-12-18T11:12:20.177Z,0.00
2022-12-18T11:14:58.989Z,0.70
2022-12-18T11:17:32.164Z,1.30
2022-12-18T11:20:08.049Z,1.70
2022-12-18T11:22:41.165Z,1.30
2022-12-18T11:28:24.557Z,0.50
2022-12-18T11:31:18.031Z,-0.20
2022-12-18T11:36:55.930Z,-1.00
2022-12-18T11:39:41.536Z,-1.30
2022-12-18T11:42:28.838Z,-1.50
2022-12-18T11:45:21.375Z,-1.60
2022-12-18T11:48:16.093Z,-1.70
2022-12-18T11:50:52.111Z,-1.70
2022-12-18T11:53:26.455Z,-1.70
2022-12-18T11:56:26.899Z,-1.90
2022-12-18T11:59:01.370Z,-2.00
2022-12-18T12:01:45.813Z,-2.00
2022-12-18T12:04:44.397Z,-2.00
2022-12-18T12:07:19.169Z,-1.90
2022-12-18T12:09:57.758Z,-1.90
2022-12-18T12:12:48.721Z,-1.80
2022-12-18T12:15:36.879Z,-1.70
2022-12-18T12:18:44.538Z,-1.70
2022-12-18T12:21:41.822Z,-1.70
2022-12-18T12:24:45.810Z,-1.70
2022-12-18T12:27:50.894Z,-1.70
2022-12-18T12:30:29.228Z,-1.70
2022-12-18T12:33:21.757Z,-1.70
2022-12-18T12:35:59.625Z,-1.60
2022-12-18T12:38:49.859Z,-1.60
2022-12-18T12:41:47.316Z,-1.60
2022-12-18T12:44:31.986Z,-1.50
2022-12-18T12:47:19.427Z,-1.50
2022-12-18T12:49:51.971Z,-1.40
2022-12-18T12:52:35.946Z,-1.40
2022-12-18T12:55:19.942Z,-1.40
2022-12-18T12:58:00.154Z,-1.40
2022-12-18T13:00:42.380Z,-1.50
2022-12-18T13:03:39.817Z,-1.50
2022-12-18T13:06:34.072Z,-1.50
2022-12-18T13:09:06.293Z,-1.50
2022-12-18T13:12:07.810Z,-1.50
2022-12-18T13:14:41.836Z,-1.50
2022-12-18T13:17:30.238Z,-1.50
2022-12-18T13:20:15.582Z,-1.50
2022-12-18T13:22:50.181Z,-1.50
2022-12-18T13:25:56.824Z,-1.60
2022-12-18T13:28:47.064Z,-1.60
2022-12-18T13:31:30.805Z,-1.60
2022-12-18T13:34:27.664Z,-1.60
2022-12-18T13:37:38.334Z,-1.60
2022-12-18T13:40:51.944Z,-1.50
2022-12-18T13:43:28.636Z,-1.50
2022-12-18T13:46:48.262Z,-1.50
2022-12-18T13:49:38.490Z,-1.50
2022-12-18T13:52:34.492Z,-1.60
2022-12-18T13:55:17.275Z,-1.60
2022-12-18T13:57:49.081Z,-1.60
2022-12-18T14:00:29.387Z,-1.60
2022-12-18T14:03:01.217Z,-1.60
2022-12-18T14:05:36.936Z,-1.70
2022-12-18T14:08:13.588Z,-1.70
2022-12-18T14:10:50.836Z,-1.80
2022-12-18T14:13:30.192Z,-1.80
2022-12-18T14:16:04.372Z,-1.80
2022-12-18T14:19:10.095Z,-1.80
2022-12-18T14:21:49.185Z,-1.80
2022-12-18T14:24:22.462Z,-1.80
2022-12-18T14:26:54.527Z,-1.90
2022-12-18T14:29:29.544Z,-2.00
2022-12-18T14:32:19.331Z,-2.10
2022-12-18T14:34:57.301Z,-2.10
2022-12-18T14:37:29.150Z,-2.20
2022-12-18T14:40:10.825Z,-2.20
2022-12-18T14:42:43.446Z,-2.20
2022-12-18T14:45:42.560Z,-2.20
2022-12-18T14:48:25.134Z,-2.20
2022-12-18T14:51:22.091Z,-2.20
2022-12-18T14:53:57.675Z,-2.30
2022-12-18T14:56:33.535Z,-2.30
2022-12-18T14:59:06.938Z,-2.40
2022-12-18T15:01:46.770Z,-2.40
2022-12-18T15:04:35.590Z,-2.40
2022-12-18T15:07:15.805Z,-2.50
2022-12-18T15:10:03.546Z,-2.60
2022-12-18T15:12:40.150Z,-2.70
2022-12-18T15:15:33.760Z,-2.70
2022-12-18T15:18:11.701Z,-2.80
2022-12-18T15:20:56.152Z,-2.80
2022-12-18T15:23:38.903Z,-2.80
2022-12-18T15:26:12.797Z,-2.80
2022-12-18T15:28:53.777Z,-2.80
2022-12-18T15:31:35.823Z,-2.80
2022-12-18T15:34:13.281Z,-2.80
2022-12-18T15:36:45.630Z,-2.80
2022-12-18T15:39:17.326Z,-2.80
2022-12-18T15:42:07.837Z,-2.80
2022-12-18T15:44:39.647Z,-2.90
2022-12-18T15:47:13.483Z,-2.90
2022-12-18T15:49:45.298Z,-2.90
2022-12-18T15:52:27.008Z,-3.00
2022-12-18T15:55:17.607Z,-2.90
2022-12-18T15:57:49.326Z,-3.00
2022-12-18T16:00:20.980Z,-3.10
2022-12-18T16:02:52.794Z,-3.20
2022-12-18T16:05:25.055Z,-3.40
2022-12-18T16:07:56.857Z,-3.50
2022-12-18T16:10:28.763Z,-3.60
2022-12-18T16:13:00.433Z,-3.80
2022-12-18T16:15:32.183Z,-3.80
2022-12-18T16:18:04.104Z,-3.90
2022-12-18T16:20:35.909Z,-4.00
2022-12-18T16:23:07.759Z,-4.00
2022-12-18T16:25:39.580Z,-4.00
2022-12-18T16:28:11.354Z,-4.00
2022-12-18T16:30:43.080Z,-4.00
2022-12-18T16:33:14.784Z,-4.00
2022-12-18T16:35:53.857Z,-4.00
2022-12-18T16:38:25.637Z,-4.00
2022-12-18T16:41:16.008Z,-4.00
2022-12-18T16:43:53.051Z,-3.90
2022-12-18T16:46:26.658Z,-3.90
2022-12-18T16:48:59.903Z,-3.90
2022-12-18T16:51:34.374Z,-3.90
2022-12-18T16:54:10.896Z,-3.80
2022-12-18T16:56:44.089Z,-3.80
2022-12-18T16:59:16.182Z,-3.80
2022-12-18T17:01:48.458Z,-3.80
2022-12-18T17:04:20.265Z,-3.80
2022-12-18T17:06:53.756Z,-3.80
2022-12-18T17:09:25.774Z,-3.80
2022-12-18T17:11:57.471Z,-3.70
2022-12-18T17:14:29.532Z,-3.70
2022-12-18T17:19:53.464Z,-3.60
2022-12-18T17:22:25.198Z,-3.50
2022-12-18T17:24:57.032Z,-3.30
2022-12-18T17:27:28.902Z,-3.10
2022-12-18T17:30:00.706Z,-3.00
2022-12-18T17:32:32.369Z,-2.90
2022-12-18T17:35:07.392Z,-2.80
2022-12-18T17:37:39.311Z,-2.80
2022-12-18T17:40:11.285Z,-2.80
2022-12-18T17:42:43.021Z,-2.80
2022-12-18T17:45:14.777Z,-2.80
2022-12-18T17:47:46.471Z,-2.90
2022-12-18T17:50:18.301Z,-2.90
2022-12-18T17:52:49.987Z,-2.80
2022-12-18T17:55:21.665Z,-2.80
2022-12-18T17:57:53.839Z,-2.80
2022-12-18T18:00:25.547Z,-2.80
2022-12-18T18:02:57.437Z,-2.80
2022-12-18T18:05:29.265Z,-2.80
2022-12-18T18:08:01.008Z,-2.80
2022-12-18T18:10:35.974Z,-2.80
2022-12-18T18:13:46.896Z,-2.80
2022-12-18T18:16:19.063Z,-2.80
2022-12-18T18:18:50.736Z,-2.70
2022-12-18T18:21:22.416Z,-2.80
2022-12-18T18:23:54.651Z,-2.70
2022-12-18T18:26:29.225Z,-2.80
2022-12-18T18:29:03.954Z,-2.80
2022-12-18T18:31:40.818Z,-2.90
2022-12-18T18:34:18.943Z,-2.90
2022-12-18T18:36:51.104Z,-2.90
2022-12-18T18:39:22.873Z,-3.00
2022-12-18T18:41:54.966Z,-2.90
2022-12-18T18:44:26.706Z,-2.90
2022-12-18T18:46:58.709Z,-2.90
2022-12-18T18:49:31.446Z,-2.80
2022-12-18T18:52:03.164Z,-2.70
2022-12-18T18:54:34.967Z,-2.60
2022-12-18T18:57:26.269Z,-2.50
2022-12-18T18:59:58.449Z,-2.60
2022-12-18T19:02:30.439Z,-2.70
2022-12-18T19:05:02.226Z,-2.70
2022-12-18T19:07:33.953Z,-2.70
2022-12-18T19:10:06.194Z,-2.70
2022-12-18T19:12:56.375Z,-2.80
2022-12-18T19:15:28.071Z,-2.80
2022-12-18T19:18:00.208Z,-2.80
2022-12-18T19:20:32.094Z,-2.90
2022-12-18T19:23:03.984Z,-2.90
2022-12-18T19:25:41.746Z,-2.90
2022-12-18T19:28:21.620Z,-2.90
2022-12-18T19:30:56.352Z,-2.90
2022-12-18T19:33:43.211Z,-2.90
2022-12-18T19:36:25.057Z,-2.90
2022-12-18T19:38:59.805Z,-2.90
2022-12-18T19:41:33.905Z,-2.80
2022-12-18T19:44:07.570Z,-2.80
2022-12-18T19:46:42.309Z,-2.70
2022-12-18T19:49:18.237Z,-2.60
2022-12-18T19:51:50.601Z,-2.50
2022-12-18T19:54:22.632Z,-2.50
2022-12-18T19:56:54.353Z,-2.50
2022-12-18T19:59:26.009Z,-2.50
2022-12-18T20:01:57.887Z,-2.50
2022-12-18T20:04:29.871Z,-2.50
2022-12-18T20:07:01.644Z,-2.50
2022-12-18T20:09:33.476Z,-2.50
2022-12-18T20:12:05.476Z,-2.40
2022-12-18T20:14:37.300Z,-2.40
2022-12-18T20:17:09.683Z,-2.40
2022-12-18T20:19:41.784Z,-2.40
2022-12-18T20:22:13.526Z,-2.40
2022-12-18T20:24:46.372Z,-2.40
2022-12-18T20:27:21.961Z,-2.40
2022-12-18T20:29:55.732Z,-2.40
2022-12-18T20:32:35.362Z,-2.30
2022-12-18T20:35:08.845Z,-2.30
2022-12-18T20:37:46.116Z,-2.30
2022-12-18T20:40:22.750Z,-2.30
2022-12-18T20:42:54.574Z,-2.30
2022-12-18T20:45:28.405Z,-2.30
2022-12-18T20:48:01.638Z,-2.30
2022-12-18T20:50:33.356Z,-2.40
2022-12-18T20:53:05.926Z,-2.40
2022-12-18T20:55:42.700Z,-2.40
2022-12-18T20:58:14.382Z,-2.40
2022-12-18T21:00:46.193Z,-2.50
2022-12-18T21:03:18.879Z,-2.50
2022-12-18T21:05:50.639Z,-2.50
2022-12-18T21:08:22.365Z,-2.40
2022-12-18T21:10:54.237Z,-2.40
2022-12-18T21:13:27.354Z,-2.50
2022-12-18T21:16:01.314Z,-2.40
2022-12-18T21:18:33.135Z,-2.40
2022-12-18T21:21:05.053Z,-2.40
2022-12-18T21:23:36.955Z,-2.40
2022-12-18T21:26:28.262Z,-2.40
2022-12-18T21:29:02.604Z,-2.40
2022-12-18T21:31:37.016Z,-2.40
2022-12-18T21:34:14.140Z,-2.40
2022-12-18T21:36:46.661Z,-2.40
2022-12-18T21:39:19.064Z,-2.40
2022-12-18T21:42:12.261Z,-2.40
2022-12-18T21:44:45.036Z,-2.40
2022-12-18T21:47:22.933Z,-2.30
2022-12-18T21:49:55.061Z,-2.30
2022-12-18T21:52:31.960Z,-2.30
2022-12-18T21:55:09.401Z,-2.30
2022-12-18T21:57:41.626Z,-2.30
2022-12-18T22:00:18.222Z,-2.20
2022-12-18T22:03:17.848Z,-2.20
2022-12-18T22:05:42.836Z,-2.20
2022-12-18T22:08:14.545Z,-2.20
2022-12-18T22:10:46.545Z,-2.20
2022-12-18T22:13:18.371Z,-2.20
2022-12-18T22:15:50.137Z,-2.10
2022-12-18T22:18:22.801Z,-2.20
2022-12-18T22:21:05.978Z,-2.10
2022-12-18T22:23:37.660Z,-2.10
2022-12-18T22:26:10.717Z,-2.10
2022-12-18T22:29:00.864Z,-2.10
2022-12-18T22:31:32.734Z,-2.10
2022-12-18T22:34:05.069Z,-2.00
2022-12-18T22:36:39.632Z,-2.00
2022-12-18T22:39:17.808Z,-2.00
2022-12-18T22:41:49.950Z,-2.00
2022-12-18T22:44:22.298Z,-1.90
2022-12-18T22:47:05.686Z,-1.90
2022-12-18T22:49:38.877Z,-1.90
2022-12-18T22:52:10.742Z,-1.90
2022-12-18T22:54:42.401Z,-1.90
2022-12-18T22:57:14.151Z,-1.90
2022-12-18T22:59:46.520Z,-1.90
2022-12-18T23:02:18.998Z,-1.90
2022-12-18T23:04:51.199Z,-1.90
2022-12-18T23:07:22.860Z,-1.80
2022-12-18T23:10:00.654Z,-1.80
2022-12-18T23:12:33.034Z,-1.70
2022-12-18T23:15:07.712Z,-1.70
2022-12-18T23:17:39.385Z,-1.70
2022-12-18T23:20:11.421Z,-1.60
2022-12-18T23:22:43.114Z,-1.60
2022-12-18T23:25:14.981Z,-1.40
2022-12-18T23:27:46.673Z,-1.40
2022-12-18T23:30:18.512Z,-1.40
2022-12-18T23:32:50.206Z,-1.40
2022-12-18T23:35:21.914Z,-1.20
2022-12-18T23:38:01.032Z,-1.10
2022-12-18T23:40:32.913Z,-1.00
2022-12-18T23:43:04.557Z,-0.90
2022-12-18T23:45:39.375Z,-1.00
2022-12-18T23:48:11.393Z,-1.00
2022-12-18T23:50:43.148Z,-1.10
2022-12-18T23:53:14.967Z,-1.10
2022-12-18T23:55:46.683Z,-1.20
2022-12-18T23:58:21.124Z,-1.30
